Enugu, Nigeria
Current Conditions -  °F | °C
As of 10:00 PM on Monday 24 Nov 2014 (Local Time) from FKKD Reporting Station
Thunderstorm Thunderstorm  
Wind Chill: 82°   Ceiling: 1300
Heat Index: 92°   Visibility: 6mi
Dew Point: 79°   Wind: 7mph
Humidity: 89%   Direction: 220°SW
Pressure: 29.88"   Gusts: NA
Location:  6.33°N, 7.5°E
Report Text: FKKD 242100Z 22006KT 9999 TS BKN013 FEW016CB 28/26 Q1012 NOSIG
Loading
Personal Weather Stations






























Interactive Weather Map New forecast layout! Learn more

10-Day Weather Forecast

Advertisements
Track Severe Weather on mobile